createdAt,value
2023-03-05T00:01:33.568Z,19.30
2023-03-05T00:04:03.486Z,18.60
2023-03-05T00:06:33.044Z,19.00
2023-03-05T00:09:01.143Z,19.80
2023-03-05T00:11:33.820Z,19.40
2023-03-05T00:14:06.634Z,18.80
2023-03-05T00:16:34.659Z,18.60
2023-03-05T00:19:02.926Z,18.20
2023-03-05T00:21:38.536Z,18.70
2023-03-05T00:24:18.350Z,21.10
2023-03-05T00:26:46.957Z,19.10
2023-03-05T00:29:18.642Z,19.10
2023-03-05T00:31:46.632Z,18.20
2023-03-05T00:34:16.728Z,18.90
2023-03-05T00:36:48.888Z,17.80
2023-03-05T00:39:19.966Z,17.80
2023-03-05T00:41:48.478Z,17.70
2023-03-05T00:44:16.470Z,18.90
2023-03-05T00:46:45.138Z,20.20
2023-03-05T00:49:13.289Z,19.00
2023-03-05T00:51:42.860Z,18.60
2023-03-05T00:54:11.020Z,18.20
2023-03-05T00:56:39.013Z,18.30
2023-03-05T00:59:07.156Z,19.40
2023-03-05T01:01:35.263Z,18.40
2023-03-05T01:04:04.098Z,19.60
2023-03-05T01:06:32.125Z,17.20
2023-03-05T01:09:00.717Z,19.40
2023-03-05T01:11:28.833Z,18.60
2023-03-05T01:13:57.023Z,19.40
2023-03-05T01:16:25.102Z,18.30
2023-03-05T01:18:53.174Z,18.00
2023-03-05T01:21:22.508Z,18.10
2023-03-05T01:23:50.528Z,17.20
2023-03-05T01:26:18.500Z,18.10
2023-03-05T01:28:46.503Z,18.40
2023-03-05T01:31:14.660Z,19.80
2023-03-05T01:33:42.896Z,19.50
2023-03-05T01:36:16.015Z,18.80
2023-03-05T01:38:46.469Z,18.80
2023-03-05T01:41:16.633Z,18.70
2023-03-05T01:43:47.047Z,19.40
2023-03-05T01:46:27.165Z,20.50
2023-03-05T01:49:01.541Z,18.40
2023-03-05T01:51:35.465Z,18.40
2023-03-05T01:54:06.400Z,19.60
2023-03-05T01:56:34.688Z,18.50
2023-03-05T01:59:03.680Z,18.10
2023-03-05T02:01:53.535Z,19.90
2023-03-05T02:04:26.696Z,19.20
2023-03-05T02:06:54.652Z,17.30
2023-03-05T02:09:25.571Z,18.50
2023-03-05T02:11:53.551Z,20.60
2023-03-05T02:14:24.485Z,18.70
2023-03-05T02:16:52.839Z,19.20
2023-03-05T02:19:20.940Z,18.80
2023-03-05T02:21:50.635Z,18.70
2023-03-05T02:24:35.075Z,19.80
2023-03-05T02:27:05.140Z,19.10
2023-03-05T02:29:37.285Z,19.40
2023-03-05T02:32:05.602Z,19.10
2023-03-05T02:34:33.719Z,19.70
2023-03-05T02:37:04.992Z,20.80
2023-03-05T02:39:33.964Z,18.30
2023-03-05T02:42:01.901Z,18.40
2023-03-05T02:44:30.653Z,18.70
2023-03-05T02:46:58.531Z,19.60
2023-03-05T02:49:27.289Z,19.30
2023-03-05T02:51:55.543Z,18.20
2023-03-05T02:54:23.508Z,20.00
2023-03-05T02:56:52.049Z,19.10
2023-03-05T02:59:20.101Z,19.00
2023-03-05T03:02:34.393Z,17.70
2023-03-05T03:05:03.017Z,19.60
2023-03-05T03:07:31.088Z,19.60
2023-03-05T03:09:59.238Z,19.80
2023-03-05T03:12:27.272Z,20.50
2023-03-05T03:14:55.285Z,19.90
2023-03-05T03:17:23.327Z,21.00
2023-03-05T03:19:51.231Z,20.90
2023-03-05T03:22:19.310Z,19.30
2023-03-05T03:24:47.307Z,20.70
2023-03-05T03:27:15.925Z,20.90
2023-03-05T03:29:43.857Z,20.80
2023-03-05T03:32:11.846Z,19.60
2023-03-05T03:34:39.994Z,20.40
2023-03-05T03:37:09.046Z,19.80
2023-03-05T03:39:36.947Z,19.30
2023-03-05T03:42:05.389Z,20.90
2023-03-05T03:44:33.676Z,20.00
2023-03-05T03:47:01.797Z,19.60
2023-03-05T03:49:29.847Z,19.00
2023-03-05T03:51:58.364Z,19.50
2023-03-05T03:54:26.394Z,18.20
2023-03-05T03:56:55.104Z,17.90
2023-03-05T03:59:23.925Z,19.20
2023-03-05T04:01:52.099Z,20.10
2023-03-05T04:04:20.058Z,20.60
2023-03-05T04:06:48.032Z,20.50
2023-03-05T04:09:16.014Z,20.30
2023-03-05T04:11:44.128Z,20.30
2023-03-05T04:14:12.284Z,20.80
2023-03-05T04:16:40.332Z,20.80
2023-03-05T04:19:08.490Z,20.30
2023-03-05T04:21:36.500Z,20.80
2023-03-05T04:24:04.803Z,20.60
2023-03-05T04:26:32.811Z,19.90
2023-03-05T04:29:00.805Z,20.90
2023-03-05T04:31:28.907Z,21.10
2023-03-05T04:33:56.871Z,20.00
2023-03-05T04:36:24.940Z,19.70
2023-03-05T04:38:52.967Z,20.90
2023-03-05T04:41:20.970Z,20.20
2023-03-05T04:43:48.983Z,19.60
2023-03-05T04:46:17.080Z,19.90
2023-03-05T04:48:45.126Z,19.70
2023-03-05T04:51:13.205Z,23.20
2023-03-05T04:53:41.186Z,23.50
2023-03-05T04:56:09.273Z,24.70
2023-03-05T04:58:37.205Z,23.50
2023-03-05T05:01:06.773Z,20.60
2023-03-05T05:03:35.117Z,20.30
2023-03-05T05:06:03.408Z,18.10
2023-03-05T05:08:32.125Z,19.80
2023-03-05T05:11:03.371Z,18.30
2023-03-05T05:13:32.845Z,20.50
2023-03-05T05:16:00.942Z,19.00
2023-03-05T05:18:29.025Z,20.80
2023-03-05T05:20:56.906Z,21.50
2023-03-05T05:23:24.957Z,20.30
2023-03-05T05:26:01.518Z,21.10
2023-03-05T05:30:58.089Z,19.00
2023-03-05T05:33:27.700Z,19.10
2023-03-05T05:35:55.697Z,19.60
2023-03-05T05:38:23.632Z,18.80
2023-03-05T05:40:51.481Z,17.40
2023-03-05T05:43:19.424Z,18.30
2023-03-05T05:45:47.549Z,17.30
2023-03-05T05:48:15.754Z,18.70
2023-03-05T05:50:44.229Z,17.80
2023-03-05T05:53:12.206Z,17.40
2023-03-05T05:55:41.358Z,17.00
2023-03-05T05:58:09.374Z,18.00
2023-03-05T06:00:37.423Z,17.10
2023-03-05T06:03:05.459Z,17.80
2023-03-05T06:05:34.485Z,18.60
2023-03-05T06:08:02.559Z,15.60
2023-03-05T06:10:30.636Z,15.10
2023-03-05T06:12:58.724Z,14.20
2023-03-05T06:15:26.860Z,12.80
2023-03-05T06:17:54.947Z,15.70
2023-03-05T06:20:23.671Z,15.30
2023-03-05T06:22:51.834Z,15.70
2023-03-05T06:25:20.039Z,15.20
2023-03-05T06:27:48.036Z,14.50
2023-03-05T06:30:16.304Z,13.40
2023-03-05T06:32:45.166Z,12.90
2023-03-05T06:35:14.204Z,12.90
2023-03-05T06:37:42.441Z,12.10
2023-03-05T06:40:12.072Z,11.80
2023-03-05T06:42:40.050Z,11.20
2023-03-05T06:45:09.430Z,10.60
2023-03-05T06:47:37.679Z,10.50
2023-03-05T06:50:06.559Z,10.30
2023-03-05T06:52:34.619Z,11.10
2023-03-05T06:55:03.664Z,10.30
2023-03-05T06:57:31.709Z,10.90
2023-03-05T06:59:59.998Z,10.70
2023-03-05T07:02:28.138Z,9.60
2023-03-05T07:04:56.265Z,11.00
2023-03-05T07:07:24.255Z,10.50
2023-03-05T07:09:54.111Z,11.90
2023-03-05T07:12:22.076Z,9.90
2023-03-05T07:14:50.285Z,10.60
2023-03-05T07:17:18.582Z,11.20
2023-03-05T07:19:46.669Z,10.50
2023-03-05T07:22:14.808Z,11.50
2023-03-05T07:24:43.090Z,10.10
2023-03-05T07:27:11.291Z,10.10
2023-03-05T07:29:39.463Z,10.40
2023-03-05T07:32:07.583Z,10.50
2023-03-05T07:34:37.860Z,9.90
2023-03-05T07:37:05.966Z,11.80
2023-03-05T07:39:34.184Z,11.20
2023-03-05T07:42:02.415Z,11.40
2023-03-05T07:44:31.348Z,11.10
2023-03-05T07:46:59.659Z,11.20
2023-03-05T07:49:27.963Z,12.00
2023-03-05T07:51:56.043Z,11.50
2023-03-05T07:54:24.571Z,11.90
2023-03-05T07:56:55.854Z,11.90
2023-03-05T07:59:23.979Z,10.50
2023-03-05T08:01:51.987Z,10.80
2023-03-05T08:04:20.034Z,12.30
2023-03-05T08:06:50.024Z,10.10
2023-03-05T08:09:19.230Z,11.30
2023-03-05T08:11:47.548Z,11.40
2023-03-05T08:14:15.905Z,11.30
2023-03-05T08:16:47.218Z,10.30
2023-03-05T08:19:16.359Z,10.90
2023-03-05T08:21:44.747Z,10.00
2023-03-05T08:24:14.652Z,10.40
2023-03-05T08:26:43.731Z,9.70
2023-03-05T08:29:11.825Z,10.70
2023-03-05T08:31:45.543Z,9.70
2023-03-05T08:34:13.530Z,11.50
2023-03-05T08:36:42.119Z,11.00
2023-03-05T08:39:10.397Z,11.30
2023-03-05T08:41:39.326Z,10.90
2023-03-05T08:44:07.843Z,9.70
2023-03-05T08:46:37.182Z,11.30
2023-03-05T08:49:07.338Z,11.20
2023-03-05T08:51:36.738Z,10.10
2023-03-05T08:54:07.250Z,9.90
2023-03-05T08:56:35.590Z,9.60
2023-03-05T08:59:04.657Z,10.20
2023-03-05T09:01:33.314Z,9.40
2023-03-05T09:04:01.941Z,10.00
2023-03-05T09:06:30.036Z,9.50
2023-03-05T09:08:58.094Z,9.60
2023-03-05T09:11:26.418Z,9.80
2023-03-05T09:13:54.417Z,9.90
2023-03-05T09:16:22.496Z,10.20
2023-03-05T09:18:50.635Z,9.50
2023-03-05T09:21:18.719Z,9.50
2023-03-05T09:23:50.085Z,10.10
2023-03-05T09:26:22.228Z,9.00
2023-03-05T09:28:50.465Z,9.20
2023-03-05T09:31:19.287Z,10.50
2023-03-05T09:33:49.358Z,10.10
2023-03-05T09:36:21.337Z,9.90
2023-03-05T09:38:50.636Z,9.80
2023-03-05T09:41:40.472Z,9.30
2023-03-05T09:44:33.006Z,9.50
2023-03-05T09:47:24.810Z,9.50
2023-03-05T09:49:58.641Z,8.80
2023-03-05T09:52:49.383Z,9.90
2023-03-05T09:55:26.259Z,9.60
2023-03-05T09:57:58.640Z,8.90
2023-03-05T10:00:49.354Z,9.50
2023-03-05T10:03:46.680Z,11.50
2023-03-05T10:06:25.268Z,8.60
2023-03-05T10:09:17.549Z,8.30
2023-03-05T10:12:01.159Z,8.70
2023-03-05T10:14:39.823Z,7.90
2023-03-05T10:17:17.031Z,8.10
2023-03-05T10:20:14.127Z,8.00
2023-03-05T10:23:01.809Z,8.80
2023-03-05T10:26:08.291Z,7.00
2023-03-05T10:28:56.588Z,8.30
2023-03-05T10:31:37.740Z,7.50
2023-03-05T10:34:31.460Z,8.70
2023-03-05T10:37:27.443Z,7.40
2023-03-05T10:39:55.260Z,6.90
2023-03-05T10:42:52.815Z,7.10
2023-03-05T10:45:36.770Z,7.00
2023-03-05T10:48:14.781Z,7.30
2023-03-05T10:50:49.924Z,6.60
2023-03-05T10:53:33.085Z,7.90
2023-03-05T10:56:05.766Z,7.60
2023-03-05T10:58:33.905Z,7.60
2023-03-05T11:01:04.408Z,7.40
2023-03-05T11:03:53.610Z,8.00
2023-03-05T11:06:40.463Z,8.20
2023-03-05T11:09:29.818Z,8.00
2023-03-05T11:12:20.499Z,7.70
2023-03-05T11:15:03.190Z,7.20
2023-03-05T11:17:34.101Z,6.80
2023-03-05T11:20:26.435Z,8.00
2023-03-05T11:23:15.773Z,7.60
2023-03-05T11:25:56.070Z,8.10
2023-03-05T11:28:33.392Z,8.00
2023-03-05T11:31:17.276Z,7.80
2023-03-05T11:33:56.131Z,8.20
2023-03-05T11:36:29.788Z,7.60
2023-03-05T11:39:18.045Z,8.10
2023-03-05T11:41:53.409Z,7.50
2023-03-05T11:44:28.882Z,8.00
2023-03-05T11:47:05.074Z,7.80
2023-03-05T11:49:45.916Z,7.90
2023-03-05T11:52:31.148Z,9.30
2023-03-05T11:55:14.905Z,7.50
2023-03-05T11:57:50.688Z,7.20
2023-03-05T12:00:25.076Z,7.20
2023-03-05T12:02:56.936Z,7.30
2023-03-05T12:05:25.947Z,7.00
2023-03-05T12:07:58.359Z,6.70
2023-03-05T12:10:26.882Z,6.90
2023-03-05T12:12:57.686Z,7.70
2023-03-05T12:15:29.548Z,6.80
2023-03-05T12:18:16.120Z,7.70
2023-03-05T12:20:47.207Z,7.30
2023-03-05T12:23:19.089Z,7.50
2023-03-05T12:25:53.235Z,7.80
2023-03-05T12:28:36.479Z,7.70
2023-03-05T12:31:10.216Z,7.30
2023-03-05T12:33:41.450Z,7.50
2023-03-05T12:36:36.142Z,7.40
2023-03-05T12:39:42.578Z,7.40
2023-03-05T12:42:28.808Z,7.30
2023-03-05T12:45:16.136Z,7.70
2023-03-05T12:47:56.310Z,7.50
2023-03-05T12:50:27.157Z,7.90
2023-03-05T12:53:04.342Z,7.70
2023-03-05T12:55:36.281Z,7.30
2023-03-05T12:58:34.667Z,7.80
2023-03-05T13:01:11.885Z,7.50
2023-03-05T13:03:51.826Z,7.20
2023-03-05T13:06:24.253Z,6.80
2023-03-05T13:09:08.122Z,6.50
2023-03-05T13:11:39.379Z,7.50
2023-03-05T13:14:26.026Z,7.50
2023-03-05T13:16:53.939Z,7.60
2023-03-05T13:19:22.909Z,7.10
2023-03-05T13:22:11.097Z,7.80
2023-03-05T13:24:39.007Z,7.20
2023-03-05T13:27:29.276Z,7.40
2023-03-05T13:29:57.408Z,7.60
2023-03-05T13:32:28.459Z,7.50
2023-03-05T13:34:59.223Z,7.60
2023-03-05T13:37:31.553Z,8.00
2023-03-05T13:40:07.138Z,6.50
2023-03-05T13:42:36.872Z,7.70
2023-03-05T13:45:08.179Z,7.10
2023-03-05T13:47:36.660Z,7.50
2023-03-05T13:50:08.318Z,8.80
2023-03-05T13:52:38.202Z,8.30
2023-03-05T13:55:15.027Z,9.10
2023-03-05T13:57:45.892Z,9.00
2023-03-05T14:00:27.931Z,8.70
2023-03-05T14:03:00.391Z,9.20
2023-03-05T14:05:31.024Z,8.80
2023-03-05T14:07:59.044Z,10.20
2023-03-05T14:10:34.553Z,9.20
2023-03-05T14:13:06.620Z,9.10
2023-03-05T14:15:35.682Z,9.00
2023-03-05T14:18:12.753Z,9.20
2023-03-05T14:21:17.531Z,9.00
2023-03-05T14:23:48.033Z,10.00
2023-03-05T14:26:29.383Z,12.00
2023-03-05T14:29:03.744Z,10.20
2023-03-05T14:31:39.586Z,9.10
2023-03-05T14:34:08.000Z,9.50
2023-03-05T14:36:36.353Z,9.00
2023-03-05T14:39:05.142Z,10.20
2023-03-05T14:41:41.421Z,9.40
2023-03-05T14:44:15.259Z,10.30
2023-03-05T14:46:43.845Z,11.70
2023-03-05T14:49:11.849Z,10.60
2023-03-05T14:51:43.692Z,11.90
2023-03-05T14:54:20.684Z,12.10
2023-03-05T14:56:49.848Z,11.20
2023-03-05T14:59:21.334Z,11.60
2023-03-05T15:01:50.930Z,13.10
2023-03-05T15:04:20.143Z,12.60
2023-03-05T15:06:51.280Z,13.60
2023-03-05T15:09:20.627Z,12.20
2023-03-05T15:11:49.969Z,12.20
2023-03-05T15:14:17.994Z,11.30
2023-03-05T15:16:46.802Z,11.30
2023-03-05T15:19:14.800Z,12.30
2023-03-05T15:21:42.907Z,13.00
2023-03-05T15:24:11.547Z,13.50
2023-03-05T15:26:39.783Z,12.70
2023-03-05T15:29:07.824Z,11.90
2023-03-05T15:31:38.857Z,12.40
2023-03-05T15:34:07.241Z,13.40
2023-03-05T15:36:35.150Z,12.00
2023-03-05T15:39:03.218Z,10.80
2023-03-05T15:41:31.146Z,9.70
2023-03-05T15:43:59.090Z,9.40
2023-03-05T15:46:27.398Z,9.80
2023-03-05T15:48:55.437Z,9.20
2023-03-05T15:51:23.381Z,9.50
2023-03-05T15:53:51.614Z,9.20
2023-03-05T15:56:19.892Z,9.10
2023-03-05T15:58:52.873Z,9.50
2023-03-05T16:01:20.966Z,10.30
2023-03-05T16:03:52.304Z,9.70
2023-03-05T16:06:23.438Z,10.00
2023-03-05T16:08:55.135Z,9.80
2023-03-05T16:11:23.315Z,9.50
2023-03-05T16:13:51.437Z,8.80
2023-03-05T16:16:20.346Z,10.20
2023-03-05T16:18:48.696Z,8.70
2023-03-05T16:21:17.283Z,10.30
2023-03-05T16:23:45.298Z,9.30
2023-03-05T16:26:13.340Z,9.10
2023-03-05T16:28:41.327Z,9.60
2023-03-05T16:31:09.361Z,8.90
2023-03-05T16:33:37.840Z,8.90
2023-03-05T16:36:11.865Z,8.60
2023-03-05T16:38:39.925Z,8.90
2023-03-05T16:41:08.935Z,9.20
2023-03-05T16:43:37.109Z,9.60
2023-03-05T16:46:05.423Z,8.50
2023-03-05T16:48:35.812Z,8.80
2023-03-05T16:51:04.923Z,8.60
2023-03-05T16:53:33.211Z,8.70
2023-03-05T16:56:06.377Z,8.80
2023-03-05T16:58:35.962Z,8.80
2023-03-05T17:01:09.633Z,8.80
2023-03-05T17:03:41.366Z,9.40
2023-03-05T17:06:18.099Z,8.50
2023-03-05T17:11:15.561Z,8.30
2023-03-05T17:13:44.047Z,7.90
2023-03-05T17:16:14.117Z,8.70
2023-03-05T17:18:42.514Z,7.50
2023-03-05T17:21:12.265Z,8.30
2023-03-05T17:23:41.176Z,8.40
2023-03-05T17:26:15.884Z,8.00
2023-03-05T17:28:44.589Z,9.60
2023-03-05T17:31:14.231Z,8.70
2023-03-05T17:33:42.744Z,7.30
2023-03-05T17:36:16.212Z,8.90
2023-03-05T17:38:45.553Z,8.60
2023-03-05T17:41:14.826Z,8.30
2023-03-05T17:43:42.863Z,7.30
2023-03-05T17:46:12.047Z,8.50
2023-03-05T17:48:40.059Z,6.80
2023-03-05T17:51:11.626Z,7.70
2023-03-05T17:53:40.424Z,8.70
2023-03-05T17:56:14.143Z,8.80
2023-03-05T17:58:42.130Z,9.20
2023-03-05T18:01:10.065Z,9.10
2023-03-05T18:03:38.062Z,9.00
2023-03-05T18:06:06.217Z,9.10
2023-03-05T18:08:34.383Z,7.90
2023-03-05T18:11:02.356Z,8.00
2023-03-05T18:13:30.444Z,7.20
2023-03-05T18:16:01.664Z,7.50
2023-03-05T18:18:29.837Z,6.20
2023-03-05T18:20:58.132Z,5.80
2023-03-05T18:23:26.053Z,5.90
2023-03-05T18:25:54.165Z,6.00
2023-03-05T18:28:22.260Z,5.60
2023-03-05T18:30:50.803Z,6.30
2023-03-05T18:33:23.791Z,5.70
2023-03-05T18:35:52.808Z,5.70
2023-03-05T18:38:22.583Z,5.30
2023-03-05T18:40:54.330Z,5.60
2023-03-05T18:43:24.134Z,5.60
2023-03-05T18:45:54.785Z,6.00
2023-03-05T18:48:23.438Z,5.60
2023-03-05T18:50:53.328Z,6.10
2023-03-05T18:53:22.718Z,6.00
2023-03-05T18:55:52.306Z,5.60
2023-03-05T18:58:23.142Z,5.90
2023-03-05T19:00:52.837Z,6.10
2023-03-05T19:03:22.905Z,6.10
2023-03-05T19:05:51.480Z,5.40
2023-03-05T19:08:20.044Z,5.90
2023-03-05T19:10:48.133Z,7.00
2023-03-05T19:13:40.873Z,6.70
2023-03-05T19:16:15.495Z,6.70
2023-03-05T19:19:12.583Z,6.20
2023-03-05T19:21:48.888Z,5.30
2023-03-05T19:24:17.036Z,5.20
2023-03-05T19:26:47.984Z,5.40
2023-03-05T19:29:16.655Z,6.00
2023-03-05T19:31:44.677Z,6.40
2023-03-05T19:34:12.853Z,6.50
2023-03-05T19:36:41.038Z,7.40
2023-03-05T19:39:09.410Z,7.30
2023-03-05T19:41:37.680Z,7.60
2023-03-05T19:44:06.584Z,7.20
2023-03-05T19:46:34.603Z,6.60
2023-03-05T19:53:31.555Z,7.60
2023-03-05T19:56:03.134Z,7.40
2023-03-05T19:58:31.866Z,7.80
2023-03-05T20:01:29.557Z,7.20
2023-03-05T20:03:59.571Z,8.10
2023-03-05T20:06:30.289Z,6.80
2023-03-05T20:08:59.550Z,7.90
2023-03-05T20:11:28.545Z,8.10
2023-03-05T20:13:57.247Z,7.50
2023-03-05T20:16:35.370Z,7.50
2023-03-05T20:19:07.571Z,7.70
2023-03-05T20:21:40.992Z,7.00
2023-03-05T20:24:12.751Z,8.10
2023-03-05T20:26:46.529Z,8.30
2023-03-05T20:29:17.854Z,7.20
2023-03-05T20:31:50.182Z,7.50
2023-03-05T20:34:19.814Z,7.60
2023-03-05T20:36:48.277Z,8.20
2023-03-05T20:39:16.437Z,9.70
2023-03-05T20:41:49.396Z,12.40
2023-03-05T20:44:17.689Z,8.70
2023-03-05T20:47:16.596Z,7.50
2023-03-05T20:49:46.912Z,7.70
2023-03-05T20:52:17.139Z,8.10
2023-03-05T20:54:47.930Z,7.40
2023-03-05T20:57:15.936Z,8.00
2023-03-05T20:59:43.901Z,7.70
2023-03-05T21:02:12.067Z,8.10
2023-03-05T21:04:40.476Z,9.10
2023-03-05T21:07:09.773Z,8.90
2023-03-05T21:09:37.981Z,7.80
2023-03-05T21:12:08.017Z,7.40
2023-03-05T21:14:40.662Z,6.90
2023-03-05T21:17:09.065Z,7.20
2023-03-05T21:19:39.092Z,6.20
2023-03-05T21:22:07.249Z,7.30
2023-03-05T21:25:15.910Z,7.40
2023-03-05T21:27:44.597Z,6.70
2023-03-05T21:30:12.928Z,7.30
2023-03-05T21:32:41.122Z,7.70
2023-03-05T21:35:15.096Z,8.10
2023-03-05T21:37:43.315Z,8.60
2023-03-05T21:40:14.231Z,7.30
2023-03-05T21:42:43.185Z,9.10
2023-03-05T21:45:14.051Z,7.30
2023-03-05T21:47:42.367Z,8.10
2023-03-05T21:50:12.950Z,8.10
2023-03-05T21:52:41.135Z,8.00
2023-03-05T21:55:13.943Z,8.20
2023-03-05T21:57:42.331Z,7.30
2023-03-05T22:00:17.314Z,7.40
2023-03-05T22:02:45.970Z,8.00
2023-03-05T22:05:15.677Z,8.80
2023-03-05T22:07:45.412Z,7.80
2023-03-05T22:10:17.619Z,7.30
2023-03-05T22:13:08.269Z,7.10
2023-03-05T22:15:49.803Z,7.60
2023-03-05T22:18:26.554Z,6.20
2023-03-05T22:23:25.240Z,7.30
2023-03-05T22:25:58.846Z,6.40
2023-03-05T22:28:28.031Z,7.30
2023-03-05T22:30:56.754Z,8.80
2023-03-05T22:33:25.725Z,7.10
2023-03-05T22:35:54.662Z,6.80
2023-03-05T22:38:23.412Z,6.90
2023-03-05T22:40:51.909Z,7.80
2023-03-05T22:43:20.730Z,6.20
2023-03-05T22:45:48.800Z,7.30
2023-03-05T22:48:17.114Z,7.50
2023-03-05T22:50:45.134Z,6.70
2023-03-05T22:53:13.243Z,6.50
2023-03-05T22:55:42.422Z,6.30
2023-03-05T22:58:10.600Z,5.60
2023-03-05T23:00:38.563Z,6.70
2023-03-05T23:03:06.676Z,5.60
2023-03-05T23:05:35.612Z,6.10
2023-03-05T23:08:03.682Z,5.90
2023-03-05T23:10:31.861Z,6.00
2023-03-05T23:13:01.478Z,6.00
2023-03-05T23:15:34.177Z,5.50
2023-03-05T23:18:03.180Z,6.30
2023-03-05T23:20:35.098Z,6.60
2023-03-05T23:23:04.298Z,6.70
2023-03-05T23:25:35.012Z,7.40
2023-03-05T23:28:03.761Z,8.40
2023-03-05T23:30:34.598Z,9.20
2023-03-05T23:33:15.623Z,8.90
2023-03-05T23:35:54.175Z,9.10
2023-03-05T23:38:23.676Z,10.30
2023-03-05T23:40:54.140Z,8.90
2023-03-05T23:43:27.062Z,9.60
2023-03-05T23:45:55.414Z,9.10
2023-03-05T23:48:25.793Z,9.20
2023-03-05T23:50:54.409Z,9.60
2023-03-05T23:53:27.821Z,8.90
2023-03-05T23:55:56.323Z,8.90
2023-03-05T23:58:24.407Z,9.40
